Time;durP1;ratioP1;P1;durP2;ratioP2;P2;SDS_P1;SDS_P2;PMS_P1;PMS_P2;Temp;Humidity;BMP_temperature;BMP_pressure;BME280_temperature;BME280_humidity;BME280_pressure;Samples;Min_cycle;Max_cycle;Signal;HPM_P1;HPM_P2
2022/04/17 00:01:34;;;;;;;8.80;4.13;;;;;;;3.21;58.04;102294.03;4941757;29;20486;-74
2022/04/17 00:04:00;;;;;;;11.13;4.10;;;;;;;3.18;58.00;102299.09;4944654;29;20039;-75
2022/04/17 00:06:25;;;;;;;11.10;4.50;;;;;;;3.16;58.16;102295.50;4941905;29;20044;-74
2022/04/17 00:08:50;;;;;;;9.15;4.13;;;;;;;3.17;58.26;102292.06;4944720;29;20039;-75
2022/04/17 00:11:16;;;;;;;8.23;4.32;;;;;;;3.14;57.70;102289.28;4942930;29;20059;-74
2022/04/17 00:13:44;;;;;;;7.65;4.05;;;;;;;3.12;57.77;102293.53;4942886;29;20036;-74
2022/04/17 00:16:10;;;;;;;9.75;3.88;;;;;;;3.07;57.84;102291.59;4944947;29;20034;-75
2022/04/17 00:18:36;;;;;;;8.77;3.72;;;;;;;3.02;57.76;102287.84;4942374;29;20047;-75
2022/04/17 00:21:03;;;;;;;8.88;4.03;;;;;;;2.99;57.97;102285.09;4943113;29;20042;-75
2022/04/17 00:23:28;;;;;;;7.05;3.47;;;;;;;2.97;58.21;102284.09;4942027;29;20047;-75
2022/04/17 00:25:53;;;;;;;7.03;3.78;;;;;;;2.95;58.53;102288.34;4944973;29;20032;-75
2022/04/17 00:28:19;;;;;;;8.43;4.13;;;;;;;2.92;58.22;102282.97;4945653;29;20046;-74
2022/04/17 00:30:44;;;;;;;10.70;3.92;;;;;;;2.86;58.11;102274.81;4946645;29;20047;-75
2022/04/17 00:33:09;;;;;;;7.28;3.45;;;;;;;2.78;57.96;102270.91;4946544;29;20035;-75
2022/04/17 00:35:34;;;;;;;8.63;3.80;;;;;;;2.71;57.48;102268.78;4947926;29;20058;-75
2022/04/17 00:38:02;;;;;;;8.98;3.85;;;;;;;2.61;58.20;102273.50;4945564;29;20415;-75
2022/04/17 00:40:27;;;;;;;8.40;4.03;;;;;;;2.56;58.48;102269.72;4947821;29;20041;-74
2022/04/17 00:42:53;;;;;;;8.23;3.80;;;;;;;2.47;59.05;102269.25;4946515;29;20473;-75
2022/04/17 00:45:18;;;;;;;7.00;3.22;;;;;;;2.33;59.37;102272.78;4944962;29;20542;-75
2022/04/17 00:47:44;;;;;;;8.30;3.65;;;;;;;2.19;59.79;102275.53;4948287;29;20066;-75
2022/04/17 00:50:09;;;;;;;9.00;3.90;;;;;;;2.04;60.29;102285.09;4945412;29;20075;-74
2022/04/17 00:52:35;;;;;;;9.18;4.20;;;;;;;1.94;60.61;102277.59;4946865;29;20074;-75
2022/04/17 00:55:04;;;;;;;9.73;4.22;;;;;;;1.87;60.76;102278.03;4948178;29;20043;-75
2022/04/17 00:57:30;;;;;;;10.05;3.88;;;;;;;1.81;61.72;102277.66;4938297;29;20132;-74
2022/04/17 00:59:56;;;;;;;6.57;3.53;;;;;;;1.76;62.15;102277.44;4945506;29;20110;-74
2022/04/17 01:02:21;;;;;;;8.63;4.75;;;;;;;1.73;61.52;102280.75;4946521;29;20565;-74
2022/04/17 01:04:47;;;;;;;11.50;5.07;;;;;;;1.72;61.65;102276.34;4937070;29;20244;-75
2022/04/17 01:07:14;;;;;;;9.73;4.07;;;;;;;1.73;61.71;102278.16;4945266;29;20038;-75
2022/04/17 01:09:40;;;;;;;8.20;4.05;;;;;;;1.73;62.47;102279.88;4934462;29;20086;-75
2022/04/17 01:12:08;;;;;;;8.57;4.28;;;;;;;1.72;62.04;102280.66;4945586;29;20498;-74
2022/04/17 01:14:36;;;;;;;9.93;4.63;;;;;;;1.72;61.88;102276.34;4945786;29;20064;-74
2022/04/17 01:17:02;;;;;;;10.90;5.50;;;;;;;1.68;62.05;102273.50;4947839;29;20043;-74
2022/04/17 01:19:32;;;;;;;8.57;4.38;;;;;;;1.62;62.98;102281.81;4945216;29;20514;-74
2022/04/17 01:21:57;;;;;;;9.10;4.75;;;;;;;1.53;63.38;102283.91;4945447;29;20050;-75
2022/04/17 01:27:07;;;;;;;11.23;5.82;;;;;;;1.54;63.23;102275.28;4947690;29;20049;-75
2022/04/17 01:29:36;;;;;;;11.25;5.55;;;;;;;1.60;63.15;102272.13;4947531;29;20426;-74
2022/04/17 01:32:07;;;;;;;11.25;6.03;;;;;;;1.61;62.89;102269.63;4944869;29;20043;-74
2022/04/17 01:34:33;;;;;;;14.85;6.82;;;;;;;1.61;63.24;102258.31;4945321;29;20040;-74
2022/04/17 01:37:00;;;;;;;10.32;5.85;;;;;;;1.58;62.84;102263.34;4947487;29;20085;-75
2022/04/17 01:39:26;;;;;;;11.00;5.80;;;;;;;1.52;63.44;102269.09;4943839;29;20225;-74
2022/04/17 01:41:53;;;;;;;12.00;5.70;;;;;;;1.47;63.22;102263.63;4945445;29;20036;-74
2022/04/17 01:44:18;;;;;;;10.63;5.40;;;;;;;1.42;64.12;102267.66;4944997;29;20035;-74
2022/04/17 01:46:45;;;;;;;12.57;5.88;;;;;;;1.33;64.35;102268.81;4947150;29;20085;-75
2022/04/17 01:49:12;;;;;;;11.15;5.57;;;;;;;1.24;64.72;102269.19;4944618;29;20040;-74
2022/04/17 01:51:39;;;;;;;10.80;5.75;;;;;;;1.21;64.53;102267.28;4945654;29;20686;-74
2022/04/17 01:54:15;;;;;;;13.68;5.63;;;;;;;1.21;65.23;102269.00;4946460;29;20034;-74
2022/04/17 01:56:42;;;;;;;13.40;6.32;;;;;;;1.17;64.71;102270.50;4947023;29;20065;-74
2022/04/17 01:59:09;;;;;;;13.38;6.25;;;;;;;1.11;64.91;102266.66;4935556;29;20067;-74
2022/04/17 02:01:35;;;;;;;11.20;5.57;;;;;;;1.04;65.36;102267.97;4947414;29;20062;-74
2022/04/17 02:04:03;;;;;;;11.63;5.53;;;;;;;0.96;65.63;102264.91;4934201;29;20035;-74
2022/04/17 02:06:28;;;;;;;8.32;5.38;;;;;;;0.87;65.49;102275.66;4928611;29;20039;-74
2022/04/17 02:08:54;;;;;;;12.90;6.25;;;;;;;0.82;65.35;102271.88;4945913;29;20371;-74
2022/04/17 02:11:21;;;;;;;11.15;5.80;;;;;;;0.82;65.97;102265.78;4926394;29;20111;-74
2022/04/17 02:13:49;;;;;;;13.02;5.90;;;;;;;0.83;65.74;102268.47;4942771;29;20043;-75
2022/04/17 02:16:14;;;;;;;12.73;5.80;;;;;;;0.81;65.77;102264.91;4928393;29;20585;-74
2022/04/17 02:18:40;;;;;;;14.07;6.03;;;;;;;0.79;66.69;102256.09;4945752;29;20062;-74
2022/04/17 02:21:05;;;;;;;12.52;6.03;;;;;;;0.75;66.37;102258.41;4943542;29;20082;-74
2022/04/17 02:23:30;;;;;;;13.97;5.87;;;;;;;0.74;66.25;102252.31;4949642;29;20062;-74
2022/04/17 02:25:56;;;;;;;17.35;6.38;;;;;;;0.73;66.54;102260.91;4946485;29;20045;-74
2022/04/17 02:28:21;;;;;;;12.57;6.47;;;;;;;0.72;66.64;102247.84;4945067;29;20071;-75
2022/04/17 02:30:46;;;;;;;10.30;5.97;;;;;;;0.75;66.80;102248.00;4944169;29;20078;-75
2022/04/17 02:33:12;;;;;;;12.67;5.80;;;;;;;0.67;66.89;102244.94;4946122;29;20031;-75
2022/04/17 02:35:37;;;;;;;12.90;5.97;;;;;;;0.61;66.96;102239.38;4947232;29;20098;-75
2022/04/17 02:38:03;;;;;;;12.23;5.68;;;;;;;0.50;67.09;102241.31;4944337;29;20035;-75
2022/04/17 02:40:28;;;;;;;9.25;4.93;;;;;;;0.46;67.26;102244.53;4944423;29;20105;-75
2022/04/17 02:42:54;;;;;;;12.03;5.33;;;;;;;0.42;67.02;102247.75;4945517;29;20102;-75
2022/04/17 02:45:20;;;;;;;12.23;5.67;;;;;;;0.39;66.97;102242.31;4943238;29;20095;-75
2022/04/17 02:47:46;;;;;;;12.73;5.22;;;;;;;0.36;67.83;102253.44;4945454;29;20053;-74
2022/04/17 02:50:16;;;;;;;11.17;5.83;;;;;;;0.42;67.98;102251.22;4944462;28;20054;-75
2022/04/17 02:52:42;;;;;;;10.23;5.47;;;;;;;0.42;67.25;102255.53;4941220;29;20066;-74
2022/04/17 02:55:08;;;;;;;11.20;5.67;;;;;;;0.43;67.59;102266.00;4946622;29;20082;-75
2022/04/17 02:57:34;;;;;;;12.57;5.87;;;;;;;0.46;67.60;102269.59;4944925;29;20070;-74
2022/04/17 03:00:00;;;;;;;11.97;5.93;;;;;;;0.47;66.83;102267.09;4944894;29;20596;-75
2022/04/17 03:07:54;;;;;;;13.33;6.20;;;;;;;0.53;66.93;102256.19;4943947;29;20935;-75
2022/04/17 03:10:19;;;;;;;14.97;6.20;;;;;;;0.54;67.21;102252.78;4949569;29;20035;-74
2022/04/17 03:12:45;;;;;;;13.67;6.00;;;;;;;0.56;66.54;102254.69;4946178;29;20035;-75
2022/04/17 03:15:11;;;;;;;14.00;6.20;;;;;;;0.55;65.88;102252.91;4944969;29;20062;-74
2022/04/17 03:17:37;;;;;;;12.70;6.53;;;;;;;0.55;66.74;102249.38;4948838;29;20502;-75
2022/04/17 03:20:03;;;;;;;12.60;6.20;;;;;;;0.46;67.17;102249.72;4946350;29;20031;-75
2022/04/17 03:22:28;;;;;;;14.47;5.93;;;;;;;0.34;67.68;102249.84;4940921;29;20039;-75
2022/04/17 03:24:54;;;;;;;11.90;5.37;;;;;;;0.27;68.39;102250.25;4948182;29;20043;-74
2022/04/17 03:27:19;;;;;;;10.87;5.10;;;;;;;0.20;68.65;102255.88;4943584;29;20039;-75
2022/04/17 03:29:45;;;;;;;13.30;6.63;;;;;;;0.15;68.61;102260.75;4943535;29;20083;-74
2022/04/17 03:32:10;;;;;;;10.87;6.03;;;;;;;0.13;68.56;102264.06;4944934;29;20494;-74
2022/04/17 03:34:36;;;;;;;10.93;5.57;;;;;;;0.13;68.61;102269.25;4942472;29;20035;-74
2022/04/17 03:37:01;;;;;;;12.10;6.03;;;;;;;0.15;69.16;102254.66;4944695;29;20406;-74
2022/04/17 03:39:26;;;;;;;12.23;5.93;;;;;;;0.14;69.62;102268.47;4943950;29;20039;-75
2022/04/17 03:41:53;;;;;;;10.93;5.97;;;;;;;0.17;69.89;102263.47;4942617;29;20051;-74
2022/04/17 03:44:19;;;;;;;11.70;6.23;;;;;;;0.21;69.51;102263.78;4945165;29;20079;-75
2022/04/17 03:46:45;;;;;;;14.87;5.90;;;;;;;0.22;69.23;102256.88;4942612;29;20082;-74
2022/04/17 03:49:11;;;;;;;12.03;6.17;;;;;;;0.22;68.43;102256.88;4945241;29;20035;-74
2022/04/17 03:51:36;;;;;;;16.13;6.80;;;;;;;0.20;68.68;102256.75;4944122;29;20049;-74
2022/04/17 03:54:02;;;;;;;15.40;6.10;;;;;;;0.22;68.82;102255.16;4943184;29;20077;-75
2022/04/17 03:56:27;;;;;;;14.30;5.80;;;;;;;0.21;68.88;102249.88;4944994;29;20043;-75
2022/04/17 03:58:52;;;;;;;12.93;5.90;;;;;;;0.19;68.06;102244.59;4943011;29;20472;-74
2022/04/17 04:01:18;;;;;;;9.80;5.57;;;;;;;0.19;67.81;102244.59;4942993;29;20043;-75
2022/04/17 04:03:43;;;;;;;12.37;7.27;;;;;;;0.15;68.91;102236.50;4941120;29;20036;-74
2022/04/17 04:06:08;;;;;;;12.30;5.90;;;;;;;0.06;67.83;102242.00;4945721;29;20043;-74
2022/04/17 04:08:33;;;;;;;11.50;5.23;;;;;;;-0.03;68.18;102231.97;4942303;29;20090;-75
2022/04/17 04:10:59;;;;;;;13.77;6.33;;;;;;;-0.04;68.13;102234.44;4943673;29;20039;-75
2022/04/17 04:13:24;;;;;;;12.53;6.07;;;;;;;-0.03;68.18;102234.56;4943864;29;20075;-74
2022/04/17 04:15:49;;;;;;;10.90;5.10;;;;;;;-0.05;67.70;102228.34;4942279;29;20039;-75
2022/04/17 04:18:15;;;;;;;12.50;5.60;;;;;;;-0.05;68.48;102233.53;4944762;29;20039;-74
2022/04/17 04:20:40;;;;;;;11.37;6.00;;;;;;;-0.09;68.12;102228.94;4942520;29;20055;-75
2022/04/17 04:23:06;;;;;;;16.17;6.37;;;;;;;-0.11;68.25;102233.13;4943070;29;20035;-74
2022/04/17 04:25:31;;;;;;;10.20;5.60;;;;;;;-0.13;69.05;102229.56;4944107;29;20035;-74
2022/04/17 04:30:40;;;;;;;12.87;6.17;;;;;;;-0.08;68.98;102228.16;4942465;29;20044;-77
2022/04/17 04:33:06;;;;;;;10.73;5.93;;;;;;;-0.03;69.00;102221.56;4945095;29;20119;-77
2022/04/17 04:35:33;;;;;;;11.27;5.67;;;;;;;0.03;68.62;102225.31;4937043;29;20035;-77
2022/04/17 04:38:00;;;;;;;12.90;5.33;;;;;;;0.08;68.19;102223.91;4944375;29;20054;-77
2022/04/17 04:40:26;;;;;;;11.00;5.57;;;;;;;0.12;67.97;102207.75;4944821;29;20142;-77
2022/04/17 04:42:59;;;;;;;11.80;5.47;;;;;;;0.20;68.19;102207.41;4928714;29;20188;-76
2022/04/17 04:48:09;;;;;;;13.10;5.53;;;;;;;0.30;69.16;102201.13;4943289;29;20056;-75
2022/04/17 04:50:34;;;;;;;13.13;5.40;;;;;;;0.36;69.04;102209.28;4942837;29;20537;-74
2022/04/17 04:52:59;;;;;;;9.60;5.10;;;;;;;0.41;69.19;102202.66;4944026;29;20090;-74
2022/04/17 04:55:25;;;;;;;13.97;6.07;;;;;;;0.48;67.98;102201.34;4941625;29;20103;-75
2022/04/17 04:57:50;;;;;;;14.27;6.30;;;;;;;0.55;67.64;102208.72;4942741;28;20447;-74
2022/04/17 05:00:15;;;;;;;14.27;5.97;;;;;;;0.62;68.25;102205.69;4942891;29;20040;-74
2022/04/17 05:02:41;;;;;;;12.83;6.23;;;;;;;0.69;68.69;102198.28;4941984;29;20047;-75
2022/04/17 05:05:07;;;;;;;17.73;7.47;;;;;;;0.82;68.18;102195.59;4944476;29;20051;-74
2022/04/17 05:07:32;;;;;;;16.83;7.40;;;;;;;0.94;66.79;102192.81;4944554;29;20044;-75
2022/04/17 05:09:57;;;;;;;16.53;7.40;;;;;;;1.03;67.30;102191.69;4941792;29;20043;-74
2022/04/17 05:12:23;;;;;;;14.80;7.22;;;;;;;1.19;66.76;102196.06;4942774;29;20451;-75
2022/04/17 05:14:48;;;;;;;19.00;6.95;;;;;;;1.30;66.40;102194.09;4942351;28;20039;-74
2022/04/17 05:17:14;;;;;;;16.67;6.77;;;;;;;1.43;66.18;102200.91;4947708;29;20042;-75
2022/04/17 05:19:39;;;;;;;16.92;7.68;;;;;;;1.52;65.19;102189.34;4945367;29;20498;-74
2022/04/17 05:22:10;;;;;;;14.38;6.93;;;;;;;1.65;65.38;102188.31;4946047;29;20035;-75
2022/04/17 05:24:36;;;;;;;15.10;7.05;;;;;;;1.73;65.38;102181.84;4947527;29;20039;-74
2022/04/17 05:27:02;;;;;;;15.23;6.95;;;;;;;1.79;66.12;102181.28;4944692;29;20126;-75
2022/04/17 05:29:27;;;;;;;21.25;8.27;;;;;;;1.87;66.10;102180.00;4946817;29;20186;-74
2022/04/17 05:31:52;;;;;;;14.10;6.47;;;;;;;1.93;66.94;102180.31;4945647;29;20028;-75
2022/04/17 05:34:17;;;;;;;13.18;6.40;;;;;;;1.96;67.18;102179.59;4947169;29;20032;-75
2022/04/17 05:36:43;;;;;;;12.45;6.65;;;;;;;2.10;67.21;102190.81;4947540;29;20411;-75
2022/04/17 05:39:09;;;;;;;12.27;6.35;;;;;;;2.13;66.67;102190.97;4943868;29;20095;-74
2022/04/17 05:41:34;;;;;;;14.82;7.22;;;;;;;2.18;66.42;102190.38;4945066;29;20035;-75
2022/04/17 05:44:00;;;;;;;17.20;7.25;;;;;;;2.18;66.74;102185.19;4928335;29;20509;-75
2022/04/17 05:46:35;;;;;;;14.80;7.10;;;;;;;2.22;66.35;102193.16;4946951;29;20062;-74
2022/04/17 05:49:05;;;;;;;12.88;6.63;;;;;;;2.35;66.42;102195.63;4945327;29;20503;-74
2022/04/17 05:51:32;;;;;;;11.35;6.20;;;;;;;2.42;65.42;102192.53;4943232;29;20479;-75
2022/04/17 05:53:59;;;;;;;11.48;6.20;;;;;;;2.51;65.30;102198.22;4947099;29;20028;-74
2022/04/17 05:56:25;;;;;;;16.38;6.78;;;;;;;2.60;64.63;102200.44;4944296;29;20085;-75
2022/04/17 05:58:50;;;;;;;10.27;5.38;;;;;;;2.72;64.39;102202.78;4945615;29;20071;-75
2022/04/17 06:01:15;;;;;;;11.60;6.35;;;;;;;2.85;64.09;102205.22;4944265;29;20135;-74
2022/04/17 06:03:41;;;;;;;11.50;6.20;;;;;;;2.95;63.53;102204.88;4947050;29;20032;-75
2022/04/17 06:06:06;;;;;;;12.88;6.38;;;;;;;3.08;62.89;102204.69;4946765;29;20035;-75
2022/04/17 06:08:31;;;;;;;11.90;6.82;;;;;;;3.19;62.62;102202.59;4944948;29;20123;-74
2022/04/17 06:10:58;;;;;;;12.43;6.47;;;;;;;3.25;61.93;102202.06;4946026;29;20692;-74
2022/04/17 06:13:24;;;;;;;13.05;5.38;;;;;;;3.25;61.52;102202.94;4947376;29;20047;-75
2022/04/17 06:15:49;;;;;;;13.25;5.47;;;;;;;3.36;61.81;102208.69;4946711;29;20047;-74
2022/04/17 06:18:14;;;;;;;11.10;5.55;;;;;;;3.46;61.21;102195.28;4944409;29;20043;-75
2022/04/17 06:20:40;;;;;;;10.88;6.13;;;;;;;3.61;61.01;102200.34;4945198;29;20042;-74
2022/04/17 06:23:05;;;;;;;10.73;5.13;;;;;;;3.74;60.54;102194.00;4949339;29;20043;-74
2022/04/17 06:25:31;;;;;;;10.40;5.18;;;;;;;3.86;59.90;102192.00;4942654;28;20039;-75
2022/04/17 06:27:57;;;;;;;10.52;5.38;;;;;;;3.98;59.77;102188.16;4945015;29;20031;-74
2022/04/17 06:30:22;;;;;;;7.95;4.78;;;;;;;4.08;59.22;102191.28;4944577;29;20047;-74
2022/04/17 06:32:49;;;;;;;10.35;5.88;;;;;;;4.19;59.77;102189.16;4944162;29;20051;-74
2022/04/17 06:35:18;;;;;;;10.48;4.25;;;;;;;4.34;58.96;102189.88;4946467;29;20078;-74
2022/04/17 06:38:01;;;;;;;6.15;3.70;;;;;;;4.46;57.35;102189.53;4946332;29;20690;-75
2022/04/17 06:40:31;;;;;;;;;;;;;;;4.51;57.07;102193.25;4934832;29;20521;-74
2022/04/17 06:42:58;;;;;;;10.30;4.00;;;;;;;4.71;57.70;102190.63;4944438;29;20324;-75
2022/04/17 06:45:25;;;;;;;7.63;4.03;;;;;;;4.83;57.07;102197.31;4945606;29;20075;-74
2022/04/17 06:47:50;;;;;;;7.65;3.72;;;;;;;4.96;56.37;102192.63;4943153;29;20043;-75
2022/04/17 06:50:18;;;;;;;8.60;4.10;;;;;;;5.10;56.52;102193.19;4945650;29;20098;-75
2022/04/17 06:52:43;;;;;;;7.53;3.90;;;;;;;5.31;55.65;102196.72;4944471;29;20051;-75
2022/04/17 06:55:11;;;;;;;8.85;4.05;;;;;;;5.51;55.23;102194.03;4943722;29;20571;-75
2022/04/17 06:57:39;;;;;;;7.30;4.00;;;;;;;5.65;55.01;102198.09;4945953;29;20039;-74
2022/04/17 07:00:06;;;;;;;9.32;4.20;;;;;;;5.65;54.49;102198.09;4943865;29;20031;-75
2022/04/17 07:02:31;;;;;;;9.57;4.22;;;;;;;5.74;53.35;102197.56;4945546;29;20482;-74
2022/04/17 07:04:56;;;;;;;10.15;3.97;;;;;;;5.92;53.57;102187.81;4946649;29;20035;-75
2022/04/17 07:07:22;;;;;;;7.20;3.47;;;;;;;6.15;53.46;102192.28;4942871;29;20043;-75
2022/04/17 07:09:47;;;;;;;7.80;3.45;;;;;;;6.42;53.04;102194.19;4945153;29;20047;-75
2022/04/17 07:12:13;;;;;;;6.68;3.60;;;;;;;6.64;52.50;102192.34;4943819;29;20126;-75
2022/04/17 07:14:39;;;;;;;6.82;3.35;;;;;;;6.81;51.73;102191.19;4943573;29;20134;-74
2022/04/17 07:17:05;;;;;;;7.65;3.60;;;;;;;6.97;51.61;102190.94;4945581;29;20065;-75
2022/04/17 07:19:30;;;;;;;6.38;3.28;;;;;;;7.13;51.42;102188.84;4942889;29;20031;-75
2022/04/17 07:21:55;;;;;;;10.45;3.63;;;;;;;7.36;50.89;102185.25;4944221;29;20063;-75
2022/04/17 07:24:21;;;;;;;6.90;3.22;;;;;;;7.43;50.58;102184.59;4944172;29;20133;-75
2022/04/17 07:26:47;;;;;;;7.47;3.17;;;;;;;7.54;49.55;102186.69;4941741;29;20047;-75
2022/04/17 07:29:12;;;;;;;8.35;3.45;;;;;;;7.76;49.78;102189.19;4945469;29;20043;-75
2022/04/17 07:31:38;;;;;;;7.13;3.70;;;;;;;7.74;48.72;102184.72;4943171;29;20043;-75
2022/04/17 07:34:03;;;;;;;7.57;3.42;;;;;;;7.88;49.62;102184.28;4947503;29;20114;-75
2022/04/17 07:36:29;;;;;;;6.63;3.30;;;;;;;7.89;48.29;102180.84;4944395;28;20043;-74
2022/04/17 07:38:54;;;;;;;7.47;3.42;;;;;;;8.15;48.88;102182.47;4942186;29;20040;-75
2022/04/17 07:41:19;;;;;;;7.32;3.28;;;;;;;8.39;48.24;102177.06;4944854;29;20074;-75
2022/04/17 07:43:45;;;;;;;6.70;3.35;;;;;;;8.66;48.19;102172.59;4942981;29;20063;-74
2022/04/17 07:46:11;;;;;;;6.68;3.28;;;;;;;8.87;47.90;102180.19;4942404;29;20645;-75
2022/04/17 07:48:36;;;;;;;6.35;3.15;;;;;;;8.97;46.66;102166.44;4944754;29;20035;-75
2022/04/17 07:51:01;;;;;;;5.78;3.08;;;;;;;8.94;46.78;102178.63;4942009;29;20107;-75
2022/04/17 07:53:27;;;;;;;6.65;3.13;;;;;;;8.94;46.36;102176.00;4944586;29;20394;-75
2022/04/17 07:55:52;;;;;;;6.28;3.10;;;;;;;8.76;46.22;102179.03;4943311;29;20040;-75
2022/04/17 07:58:35;;;;;;;7.85;3.13;;;;;;;8.71;46.94;102181.50;4943155;29;20043;-75
2022/04/17 08:01:10;;;;;;;;;;;;;;;8.66;46.26;102180.50;4945294;29;20074;-75
2022/04/17 08:03:46;;;;;;;5.57;2.97;;;;;;;8.82;46.61;102179.19;4945330;29;19918;-74
2022/04/17 08:06:16;;;;;;;6.32;3.05;;;;;;;8.98;46.81;102175.22;4945175;29;20054;-75
2022/04/17 08:08:42;;;;;;;7.38;3.20;;;;;;;9.08;46.51;102171.97;4944997;29;20081;-75
2022/04/17 08:11:08;;;;;;;6.88;3.13;;;;;;;9.11;45.32;102166.78;4942280;29;20039;-74
2022/04/17 08:13:35;;;;;;;7.55;2.78;;;;;;;9.21;45.88;102162.66;4943351;29;20475;-75
2022/04/17 08:16:00;;;;;;;7.88;2.67;;;;;;;9.26;44.34;102162.78;4944440;29;20085;-74
2022/04/17 08:18:26;;;;;;;6.15;2.70;;;;;;;9.33;44.08;102152.44;4941865;29;20075;-75
2022/04/17 08:20:52;;;;;;;5.05;2.45;;;;;;;9.44;43.72;102156.22;4944263;29;20035;-75
2022/04/17 08:23:17;;;;;;;6.05;2.20;;;;;;;9.55;43.43;102153.84;4943347;29;20197;-75
2022/04/17 08:25:43;;;;;;;5.03;1.90;;;;;;;9.57;41.96;102160.03;4942785;29;20041;-75
2022/04/17 08:28:09;;;;;;;5.10;1.95;;;;;;;9.65;41.92;102149.69;4944785;29;20023;-75
2022/04/17 08:30:34;;;;;;;4.75;2.03;;;;;;;9.86;41.88;102152.81;4944809;29;20462;-75
2022/04/17 08:33:04;;;;;;;4.80;1.90;;;;;;;10.02;42.06;102147.88;4942323;29;20040;-75
2022/04/17 08:35:30;;;;;;;4.85;2.10;;;;;;;10.09;41.12;102136.59;4945414;29;20067;-75
2022/04/17 08:38:02;;;;;;;6.00;2.30;;;;;;;10.27;41.97;102138.72;4947295;29;20054;-75
2022/04/17 08:40:28;;;;;;;5.65;2.20;;;;;;;10.27;41.38;102131.75;4942917;29;20048;-75
2022/04/17 08:42:54;;;;;;;5.40;2.00;;;;;;;10.52;40.42;102127.84;4943981;29;20489;-75
2022/04/17 08:45:20;;;;;;;4.72;2.15;;;;;;;10.65;40.48;102113.13;4951398;29;20031;-75
2022/04/17 08:47:45;;;;;;;5.15;2.15;;;;;;;10.89;41.69;102109.16;4946528;29;20405;-75
2022/04/17 08:50:15;;;;;;;4.75;2.17;;;;;;;11.22;41.29;102110.59;4944873;29;20047;-75
2022/04/17 08:52:45;;;;;;;5.13;1.88;;;;;;;11.50;40.91;102101.34;4944585;29;20086;-75
2022/04/17 08:55:11;;;;;;;4.18;1.75;;;;;;;11.62;40.14;102097.13;4948158;29;20035;-75
2022/04/17 08:57:36;;;;;;;4.13;1.52;;;;;;;11.76;38.92;102099.97;4945976;29;20054;-74
2022/04/17 09:00:08;;;;;;;5.43;2.00;;;;;;;11.99;38.99;102097.66;4929568;29;20082;-75
2022/04/17 09:02:34;;;;;;;;;;;;;;;12.20;39.36;102086.44;4948051;29;20047;-75
2022/04/17 09:05:03;;;;;;;3.03;1.30;;;;;;;12.54;39.59;102081.53;4948115;29;19925;-76
2022/04/17 09:07:45;;;;;;;4.78;1.80;;;;;;;12.90;39.74;102074.81;4946721;29;20533;-75
2022/04/17 09:10:10;;;;;;;4.95;2.20;;;;;;;13.05;38.60;102080.25;4947970;29;20548;-75
2022/04/17 09:12:36;;;;;;;3.63;1.70;;;;;;;13.28;38.46;102082.22;4946383;29;20118;-75
2022/04/17 09:15:02;;;;;;;3.63;1.80;;;;;;;13.46;38.66;102077.03;4945274;29;20093;-74
2022/04/17 09:17:32;;;;;;;5.13;1.95;;;;;;;13.53;37.72;102073.56;4922549;29;20126;-75
2022/04/17 09:19:58;;;;;;;3.85;1.73;;;;;;;13.56;37.40;102073.56;4946664;29;20177;-75
2022/04/17 09:22:23;;;;;;;4.85;1.90;;;;;;;13.52;37.03;102066.50;4946354;29;20478;-75
2022/04/17 09:24:49;;;;;;;5.57;2.00;;;;;;;13.31;36.39;102067.25;4927802;29;20067;-74
2022/04/17 09:27:14;;;;;;;4.88;1.80;;;;;;;13.35;37.21;102062.84;4947589;29;20039;-75
2022/04/17 09:29:40;;;;;;;4.90;1.95;;;;;;;13.32;37.15;102052.22;4945296;29;20392;-75
2022/04/17 09:32:07;;;;;;;4.18;2.10;;;;;;;13.47;37.25;102054.97;4945817;29;20118;-74
2022/04/17 09:34:55;;;;;;;3.28;1.60;;;;;;;13.64;37.19;102057.72;4947483;29;20042;-75
2022/04/17 09:37:25;;;;;;;4.55;1.67;;;;;;;13.56;35.65;102047.06;4947477;29;20047;-75
2022/04/17 09:39:54;;;;;;;4.28;1.95;;;;;;;13.55;36.49;102045.28;4933772;29;20047;-75
2022/04/17 09:42:21;;;;;;;4.07;2.13;;;;;;;13.63;37.06;102047.09;4945622;29;20040;-75
2022/04/17 09:44:48;;;;;;;3.88;1.90;;;;;;;13.81;37.14;102041.91;4927689;29;20040;-75
2022/04/17 09:47:20;;;;;;;3.45;1.60;;;;;;;13.54;36.67;102027.59;4950673;29;20125;-75
2022/04/17 09:49:57;;;;;;;3.53;1.83;;;;;;;13.65;36.79;102029.41;4945944;29;20043;-75
2022/04/17 09:52:33;;;;;;;4.70;2.30;;;;;;;13.81;37.37;102028.63;4946795;29;20035;-76
2022/04/17 09:55:00;;;;;;;4.50;1.73;;;;;;;13.85;37.15;102026.84;4946758;29;20047;-75
2022/04/17 09:57:27;;;;;;;3.75;1.88;;;;;;;13.90;36.39;102026.00;4944188;29;20047;-75
2022/04/17 09:59:53;;;;;;;3.67;2.13;;;;;;;13.97;36.35;102019.84;4944752;28;20031;-75
2022/04/17 10:02:19;;;;;;;5.38;1.98;;;;;;;13.86;36.40;102013.59;4945350;29;20190;-75
2022/04/17 10:04:45;;;;;;;2.85;1.42;;;;;;;14.00;36.88;102011.00;4947685;29;20039;-75
2022/04/17 10:07:11;;;;;;;3.40;1.75;;;;;;;13.97;36.48;102011.00;4942633;29;20043;-75
2022/04/17 10:09:38;;;;;;;3.53;1.67;;;;;;;13.84;36.56;102010.06;4948616;29;20073;-75
2022/04/17 10:12:05;;;;;;;4.40;1.95;;;;;;;13.48;34.59;102001.03;4950106;29;20050;-75
2022/04/17 10:14:31;;;;;;;5.63;1.92;;;;;;;13.20;35.95;101993.75;4943020;29;20071;-75
2022/04/17 10:16:57;;;;;;;5.22;1.83;;;;;;;13.16;35.66;101998.16;4946716;29;20078;-75
2022/04/17 10:19:24;;;;;;;3.63;1.90;;;;;;;13.19;36.20;102005.25;4944490;29;20031;-75
2022/04/17 10:21:51;;;;;;;4.30;1.73;;;;;;;13.15;36.26;101994.63;4944443;29;20126;-75
2022/04/17 10:24:18;;;;;;;3.88;1.63;;;;;;;13.20;36.47;101993.75;4946270;29;20049;-75
2022/04/17 10:26:49;;;;;;;4.57;2.13;;;;;;;13.04;36.71;101990.13;4946610;29;20043;-75
2022/04/17 10:29:35;;;;;;;4.55;1.88;;;;;;;12.92;36.31;101980.34;4945148;29;20043;-75
2022/04/17 10:32:57;;;;;;;4.10;1.88;;;;;;;12.83;36.38;101980.25;4933848;29;20042;-75
2022/04/17 10:35:50;;;;;;;4.10;1.70;;;;;;;13.02;36.75;101973.31;4945919;29;20039;-75
2022/04/17 10:38:22;;;;;;;6.25;1.98;;;;;;;13.10;36.55;101972.50;4946442;29;20043;-75
2022/04/17 10:41:06;;;;;;;4.43;1.80;;;;;;;13.06;36.29;101970.72;4947074;29;20511;-75
2022/04/17 10:43:51;;;;;;;4.38;2.25;;;;;;;13.20;36.37;101961.94;4946077;29;20035;-75
2022/04/17 10:46:19;;;;;;;3.97;1.73;;;;;;;13.59;36.71;101962.19;4934941;29;20070;-75
2022/04/17 10:48:52;;;;;;;4.75;1.83;;;;;;;13.88;36.97;101953.44;4944632;29;20047;-75
2022/04/17 10:51:23;;;;;;;4.25;2.03;;;;;;;14.08;35.84;101955.28;4942759;29;20406;-75
2022/04/17 10:54:06;;;;;;;4.18;2.13;;;;;;;14.15;36.02;101959.72;4944952;29;20035;-76
2022/04/17 10:56:33;;;;;;;3.90;1.85;;;;;;;14.34;35.85;101945.56;4946098;29;20035;-75
2022/04/17 10:59:00;;;;;;;4.70;2.00;;;;;;;14.49;35.85;101942.03;4944563;29;20086;-75
2022/04/17 11:01:41;;;;;;;4.00;1.73;;;;;;;14.73;34.55;101941.19;4946374;29;20398;-75
2022/04/17 11:04:34;;;;;;;4.38;1.95;;;;;;;14.59;34.15;101943.84;4945800;29;20383;-75
2022/04/17 11:07:05;;;;;;;3.28;1.73;;;;;;;14.61;33.67;101938.53;4945872;29;20031;-75
2022/04/17 11:09:40;;;;;;;2.97;1.35;;;;;;;14.57;33.90;101940.31;4943680;29;20039;-75
2022/04/17 11:12:24;;;;;;;3.17;1.52;;;;;;;14.33;33.86;101933.19;4942343;29;20503;-75
2022/04/17 11:15:15;;;;;;;4.50;1.70;;;;;;;14.37;34.06;101937.59;4945782;29;20040;-75
2022/04/17 11:17:42;;;;;;;4.07;1.58;;;;;;;14.51;34.46;101934.94;4945669;29;20039;-75
2022/04/17 11:20:08;;;;;;;5.03;1.73;;;;;;;14.86;34.46;101927.00;4945549;29;20035;-75
2022/04/17 11:22:35;;;;;;;4.38;1.50;;;;;;;15.13;34.40;101926.03;4942705;29;20139;-75
2022/04/17 11:25:11;;;;;;;3.55;1.30;;;;;;;15.22;33.36;101930.47;4943864;29;20039;-75
2022/04/17 11:28:02;;;;;;;3.50;1.45;;;;;;;14.93;32.25;101932.28;4942845;29;20066;-76
2022/04/17 11:30:27;;;;;;;3.25;1.60;;;;;;;14.61;32.84;101918.16;4943279;29;20070;-75
2022/04/17 11:32:53;;;;;;;4.10;1.52;;;;;;;15.02;33.08;101922.53;4943584;29;20126;-75
2022/04/17 11:35:22;;;;;;;3.70;1.60;;;;;;;15.35;32.33;101910.00;4944823;29;20043;-75
2022/04/17 11:37:52;;;;;;;4.32;1.70;;;;;;;15.65;32.33;101902.78;4943767;29;20515;-75
2022/04/17 11:40:19;;;;;;;3.88;1.30;;;;;;;15.76;32.67;101911.63;4945331;29;20082;-75
2022/04/17 11:42:46;;;;;;;3.78;1.50;;;;;;;16.02;32.19;101902.59;4934406;29;20492;-75